Terminal Aerodrome Forecast
Issued by NWS Tuscon, AZ

Home | Current Version | Previous Version | Text Only | Print | Product List | Glossary On
Versions: 1 2 3 4 5 6 7 8 9 10 11 12 13
000
FTUS45 KTWC 161700
TAFTUS
TAF
KTUS 161734Z 1618/1718 27006KT P6SM SKC
     FM162000 28012G18KT P6SM SKC
     FM170200 32008KT P6SM SCT250
     FM170700 15006KT P6SM SCT250=

USA.gov is the U.S. government's official web portal to all federal, state and local government web resources and services.